Terminal Aerodrome Forecast
Issued by NWS

Home | Current Version | Previous Version | Text Only | Print | Product List | Glossary On
Versions: 1 2 3 4 5 6 7 8 9 10 11 12
000
FTUS46 KOTX 261128
TAFPUW
TAF
KPUW 261128Z 2612/2712 00000KT P6SM SKC
     FM261900 26006KT P6SM FEW150 SCT250
     FM270200 VRB03KT P6SM FEW100 BKN200
     FM270600 00000KT P6SM SCT080 BKN150=

USA.gov is the U.S. government's official web portal to all federal, state and local government web resources and services.